Airfield :
LOGIN :

Register | Disclaimer

   EN    FR    IT 

 










Legend :    VFR   Marginal VFR   IFR   Intensive IFR   Very Intensive IFR
Visi :
Ceiling :
>= 8 km
>= 3000ft
5 to 8 km
1000 to 3000 ft
1500m to 5 km
500 to 1000 ft
800 to 1500m
200 to 500 ft
< 800m
< 200 ft
Symbols :   Thunderstorms  Fog  Heavy snow  Heavy precipitations  Wind > 20 kt
SIGMETs :     Misc.  Thunderstorms  Icing  Turbulence  Mountain Waves  Volcanic Ashes






- Airport Elevation : 464 ft
- IATA code : EVX


LFOE - Evreux

CURRENT METAR :
  • 232100Z AUTO 21004KT 9999 OVC046 09/08 Q1028 NOSIG

EXPIRED METARs :
  • 232030Z AUTO 22003KT 9999 OVC046 09/08 Q1028 NOSIG
  • 232000Z AUTO 23003KT 9999 OVC046 10/08 Q1028 NOSIG
  • 231930Z AUTO 23003KT 9999 OVC045 10/08 Q1028 NOSIG
  • 231900Z AUTO 23004KT 9999 OVC043 10/08 Q1028 NOSIG
  • 231830Z AUTO 22005KT 9999 OVC043 10/08 Q1028 NOSIG

TAF TAF LFOE
Valid from the 23 at 21:00 until the 24 at 21:00 UTC


232000Z 2321/2421 19006KT 9999 SCT030 BKN045
BECMG 2323/2402 2000 BR
TEMPO 2404/2408 VRB03KT 0500 BCFG
PROB40
TEMPO 2404/2408 0300 FG
BECMG 2408/2409 9999 NSW SCT005
BECMG 2409/2411 CAVOK



MET'MAP, your aeronautical weather chart ! - Copyright ORBIFLY December 2007 - Disclaimer

ORBIFLY MET'MAP TEAM :

Programming & Development : Alexandra Zaïnal
Concept & original design : Baudouin d'Aumeries
Assistance for programming : Marc-Olivier Méhu
Technical & hardware support : Manuel Goepfert

Contact : metmap@orbifly.com




SOURCES & CREDITS :

   NOAA